South Royalston, Massachusetts
Current Conditions -  °F | °C
As of 12:52 PM on Sunday 25 Jan 2015 (Local Time) from KORE Reporting Station
Clear Clear  
Wind Chill: 19°   Ceiling: Unl
Heat Index: 31°   Visibility: 10mi
Dew Point:   Wind: 17mph
Humidity: 38%   Direction: 290°WNW
Pressure: 29.66"   Gusts: 24mph
Location:  42.5958°N, 72.2274°W
Report Text: KORE 251752Z AUTO 29015G21KT 10SM CLR M01/M13 A2966 RMK AO2 SLP049 60000 T10061133 10011 21006 51019
Loading
Personal Weather Stations






























Interactive Weather Map New forecast layout! Learn more

10-Day Weather Forecast

Advertisements
Track Severe Weather on mobile